sensor_id;sensor_type;location;lat;lon;timestamp;P1;durP1;ratioP1;P2;durP2;ratioP2
3779;SDS011;1905;52.482;9.802;2022-08-27T00:01:20;5.17;;;4.43;;
3779;SDS011;1905;52.482;9.802;2022-08-27T00:03:47;11.10;;;4.30;;
3779;SDS011;1905;52.482;9.802;2022-08-27T00:06:16;6.90;;;3.90;;
3779;SDS011;1905;52.482;9.802;2022-08-27T00:08:45;9.50;;;5.33;;
3779;SDS011;1905;52.482;9.802;2022-08-27T00:11:15;7.80;;;3.83;;
3779;SDS011;1905;52.482;9.802;2022-08-27T00:13:44;10.50;;;4.40;;
3779;SDS011;1905;52.482;9.802;2022-08-27T00:16:13;10.90;;;4.97;;
3779;SDS011;1905;52.482;9.802;2022-08-27T00:18:44;5.70;;;4.20;;
3779;SDS011;1905;52.482;9.802;2022-08-27T00:21:13;8.13;;;4.70;;
3779;SDS011;1905;52.482;9.802;2022-08-27T00:23:43;9.13;;;3.93;;
3779;SDS011;1905;52.482;9.802;2022-08-27T00:26:11;5.30;;;3.80;;
3779;SDS011;1905;52.482;9.802;2022-08-27T00:28:41;8.30;;;3.97;;
3779;SDS011;1905;52.482;9.802;2022-08-27T00:31:09;11.50;;;4.57;;
3779;SDS011;1905;52.482;9.802;2022-08-27T00:33:38;12.27;;;3.67;;
3779;SDS011;1905;52.482;9.802;2022-08-27T00:36:06;7.57;;;4.50;;
3779;SDS011;1905;52.482;9.802;2022-08-27T00:38:34;19.50;;;4.73;;
3779;SDS011;1905;52.482;9.802;2022-08-27T00:41:03;8.40;;;3.83;;
3779;SDS011;1905;52.482;9.802;2022-08-27T00:43:43;6.30;;;3.63;;
3779;SDS011;1905;52.482;9.802;2022-08-27T00:46:15;4.90;;;3.23;;
3779;SDS011;1905;52.482;9.802;2022-08-27T00:48:47;9.63;;;3.47;;
3779;SDS011;1905;52.482;9.802;2022-08-27T00:51:17;10.20;;;5.10;;
3779;SDS011;1905;52.482;9.802;2022-08-27T00:53:46;13.33;;;3.87;;
3779;SDS011;1905;52.482;9.802;2022-08-27T00:56:16;9.83;;;4.27;;
3779;SDS011;1905;52.482;9.802;2022-08-27T00:58:49;12.00;;;4.60;;
3779;SDS011;1905;52.482;9.802;2022-08-27T01:01:20;11.17;;;4.43;;
3779;SDS011;1905;52.482;9.802;2022-08-27T01:03:51;16.37;;;4.53;;
3779;SDS011;1905;52.482;9.802;2022-08-27T01:06:22;10.83;;;3.80;;
3779;SDS011;1905;52.482;9.802;2022-08-27T01:08:55;9.03;;;4.53;;
3779;SDS011;1905;52.482;9.802;2022-08-27T01:11:27;12.30;;;4.50;;
3779;SDS011;1905;52.482;9.802;2022-08-27T01:13:56;10.50;;;4.87;;
3779;SDS011;1905;52.482;9.802;2022-08-27T01:16:28;10.10;;;4.90;;
3779;SDS011;1905;52.482;9.802;2022-08-27T01:19:01;12.23;;;4.33;;
3779;SDS011;1905;52.482;9.802;2022-08-27T01:21:33;9.50;;;4.53;;
3779;SDS011;1905;52.482;9.802;2022-08-27T01:24:07;15.60;;;6.53;;
3779;SDS011;1905;52.482;9.802;2022-08-27T01:26:40;9.97;;;5.00;;
3779;SDS011;1905;52.482;9.802;2022-08-27T01:29:07;9.43;;;4.53;;
3779;SDS011;1905;52.482;9.802;2022-08-27T01:31:35;7.90;;;4.27;;
3779;SDS011;1905;52.482;9.802;2022-08-27T01:34:04;8.90;;;4.10;;
3779;SDS011;1905;52.482;9.802;2022-08-27T01:36:32;8.93;;;3.67;;
3779;SDS011;1905;52.482;9.802;2022-08-27T01:39:00;6.30;;;3.77;;
3779;SDS011;1905;52.482;9.802;2022-08-27T01:41:30;6.50;;;4.57;;
3779;SDS011;1905;52.482;9.802;2022-08-27T01:43:59;8.60;;;4.57;;
3779;SDS011;1905;52.482;9.802;2022-08-27T01:46:27;7.33;;;4.53;;
3779;SDS011;1905;52.482;9.802;2022-08-27T01:48:54;6.50;;;4.03;;
3779;SDS011;1905;52.482;9.802;2022-08-27T01:51:22;13.97;;;4.93;;
3779;SDS011;1905;52.482;9.802;2022-08-27T01:53:50;10.83;;;4.30;;
3779;SDS011;1905;52.482;9.802;2022-08-27T01:56:17;10.67;;;4.20;;
3779;SDS011;1905;52.482;9.802;2022-08-27T01:58:45;13.90;;;4.27;;
3779;SDS011;1905;52.482;9.802;2022-08-27T02:01:17;7.00;;;4.10;;
3779;SDS011;1905;52.482;9.802;2022-08-27T02:03:45;10.90;;;5.07;;
3779;SDS011;1905;52.482;9.802;2022-08-27T02:06:13;10.40;;;4.67;;
3779;SDS011;1905;52.482;9.802;2022-08-27T02:08:41;7.47;;;4.80;;
3779;SDS011;1905;52.482;9.802;2022-08-27T02:11:08;13.83;;;4.90;;
3779;SDS011;1905;52.482;9.802;2022-08-27T02:13:36;6.87;;;4.10;;
3779;SDS011;1905;52.482;9.802;2022-08-27T02:16:04;14.43;;;4.93;;
3779;SDS011;1905;52.482;9.802;2022-08-27T02:18:35;11.20;;;4.90;;
3779;SDS011;1905;52.482;9.802;2022-08-27T02:21:06;7.82;;;4.70;;
3779;SDS011;1905;52.482;9.802;2022-08-27T02:23:34;11.90;;;4.80;;
3779;SDS011;1905;52.482;9.802;2022-08-27T02:26:02;7.00;;;4.20;;
3779;SDS011;1905;52.482;9.802;2022-08-27T02:28:29;10.30;;;4.33;;
3779;SDS011;1905;52.482;9.802;2022-08-27T02:30:57;11.80;;;4.23;;
3779;SDS011;1905;52.482;9.802;2022-08-27T02:33:25;8.50;;;4.37;;
3779;SDS011;1905;52.482;9.802;2022-08-27T02:35:54;5.17;;;4.43;;
3779;SDS011;1905;52.482;9.802;2022-08-27T02:38:22;9.10;;;5.03;;
3779;SDS011;1905;52.482;9.802;2022-08-27T02:40:51;8.23;;;4.00;;
3779;SDS011;1905;52.482;9.802;2022-08-27T02:43:19;10.35;;;4.97;;
3779;SDS011;1905;52.482;9.802;2022-08-27T02:45:50;8.23;;;4.20;;
3779;SDS011;1905;52.482;9.802;2022-08-27T02:48:18;9.93;;;4.30;;
3779;SDS011;1905;52.482;9.802;2022-08-27T02:50:46;7.27;;;4.77;;
3779;SDS011;1905;52.482;9.802;2022-08-27T02:53:16;7.13;;;4.10;;
3779;SDS011;1905;52.482;9.802;2022-08-27T02:55:44;11.43;;;5.10;;
3779;SDS011;1905;52.482;9.802;2022-08-27T02:58:12;6.53;;;4.65;;
3779;SDS011;1905;52.482;9.802;2022-08-27T03:00:41;9.90;;;4.30;;
3779;SDS011;1905;52.482;9.802;2022-08-27T03:03:09;13.80;;;4.30;;
3779;SDS011;1905;52.482;9.802;2022-08-27T03:05:37;13.03;;;4.33;;
3779;SDS011;1905;52.482;9.802;2022-08-27T03:08:05;6.53;;;3.97;;
3779;SDS011;1905;52.482;9.802;2022-08-27T03:10:35;7.50;;;4.20;;
3779;SDS011;1905;52.482;9.802;2022-08-27T03:13:02;7.63;;;4.60;;
3779;SDS011;1905;52.482;9.802;2022-08-27T03:15:30;14.13;;;4.73;;
3779;SDS011;1905;52.482;9.802;2022-08-27T03:17:58;8.03;;;4.10;;
3779;SDS011;1905;52.482;9.802;2022-08-27T03:20:43;4.93;;;3.70;;
3779;SDS011;1905;52.482;9.802;2022-08-27T03:23:13;13.23;;;3.70;;
3779;SDS011;1905;52.482;9.802;2022-08-27T03:25:43;11.30;;;4.23;;
3779;SDS011;1905;52.482;9.802;2022-08-27T03:28:13;9.80;;;4.00;;
3779;SDS011;1905;52.482;9.802;2022-08-27T03:30:48;6.43;;;4.97;;
3779;SDS011;1905;52.482;9.802;2022-08-27T03:33:17;7.03;;;3.93;;
3779;SDS011;1905;52.482;9.802;2022-08-27T03:35:45;8.03;;;4.17;;
3779;SDS011;1905;52.482;9.802;2022-08-27T03:38:17;8.50;;;4.43;;
3779;SDS011;1905;52.482;9.802;2022-08-27T03:40:47;5.47;;;3.57;;
3779;SDS011;1905;52.482;9.802;2022-08-27T03:43:15;14.57;;;4.47;;
3779;SDS011;1905;52.482;9.802;2022-08-27T03:45:45;9.33;;;4.23;;
3779;SDS011;1905;52.482;9.802;2022-08-27T03:48:26;11.17;;;4.87;;
3779;SDS011;1905;52.482;9.802;2022-08-27T03:50:54;6.10;;;4.27;;
3779;SDS011;1905;52.482;9.802;2022-08-27T03:53:22;7.40;;;4.67;;
3779;SDS011;1905;52.482;9.802;2022-08-27T03:55:51;9.40;;;4.07;;
3779;SDS011;1905;52.482;9.802;2022-08-27T03:58:18;8.70;;;4.27;;
3779;SDS011;1905;52.482;9.802;2022-08-27T04:00:46;9.15;;;4.40;;
3779;SDS011;1905;52.482;9.802;2022-08-27T04:03:13;8.93;;;4.30;;
3779;SDS011;1905;52.482;9.802;2022-08-27T04:05:41;5.77;;;4.77;;
3779;SDS011;1905;52.482;9.802;2022-08-27T04:08:10;8.33;;;4.23;;
3779;SDS011;1905;52.482;9.802;2022-08-27T04:10:38;7.40;;;4.20;;
3779;SDS011;1905;52.482;9.802;2022-08-27T04:13:08;8.43;;;5.03;;
3779;SDS011;1905;52.482;9.802;2022-08-27T04:15:35;9.20;;;4.47;;
3779;SDS011;1905;52.482;9.802;2022-08-27T04:18:07;6.90;;;3.60;;
3779;SDS011;1905;52.482;9.802;2022-08-27T04:20:35;7.73;;;3.37;;
3779;SDS011;1905;52.482;9.802;2022-08-27T04:23:03;7.57;;;4.43;;
3779;SDS011;1905;52.482;9.802;2022-08-27T04:25:31;10.13;;;4.27;;
3779;SDS011;1905;52.482;9.802;2022-08-27T04:27:59;8.80;;;4.27;;
3779;SDS011;1905;52.482;9.802;2022-08-27T04:30:28;8.10;;;3.37;;
3779;SDS011;1905;52.482;9.802;2022-08-27T04:32:56;10.93;;;4.40;;
3779;SDS011;1905;52.482;9.802;2022-08-27T04:35:24;7.43;;;3.60;;
3779;SDS011;1905;52.482;9.802;2022-08-27T04:37:51;6.27;;;4.47;;
3779;SDS011;1905;52.482;9.802;2022-08-27T04:40:19;8.70;;;3.77;;
3779;SDS011;1905;52.482;9.802;2022-08-27T04:42:47;6.80;;;3.20;;
3779;SDS011;1905;52.482;9.802;2022-08-27T04:45:14;6.53;;;3.47;;
3779;SDS011;1905;52.482;9.802;2022-08-27T04:47:43;7.00;;;3.10;;
3779;SDS011;1905;52.482;9.802;2022-08-27T04:50:11;11.60;;;3.77;;
3779;SDS011;1905;52.482;9.802;2022-08-27T04:52:39;7.73;;;3.43;;
3779;SDS011;1905;52.482;9.802;2022-08-27T04:55:08;10.50;;;3.63;;
3779;SDS011;1905;52.482;9.802;2022-08-27T04:57:36;4.10;;;3.70;;
3779;SDS011;1905;52.482;9.802;2022-08-27T05:00:04;17.97;;;6.30;;
3779;SDS011;1905;52.482;9.802;2022-08-27T05:02:33;7.50;;;3.30;;
3779;SDS011;1905;52.482;9.802;2022-08-27T05:05:02;7.07;;;3.93;;
3779;SDS011;1905;52.482;9.802;2022-08-27T05:07:30;13.70;;;4.00;;
3779;SDS011;1905;52.482;9.802;2022-08-27T05:09:57;6.43;;;2.80;;
3779;SDS011;1905;52.482;9.802;2022-08-27T05:12:25;5.93;;;3.50;;
3779;SDS011;1905;52.482;9.802;2022-08-27T05:14:53;13.37;;;4.20;;
3779;SDS011;1905;52.482;9.802;2022-08-27T05:17:20;7.63;;;3.20;;
3779;SDS011;1905;52.482;9.802;2022-08-27T05:19:48;9.50;;;4.57;;
3779;SDS011;1905;52.482;9.802;2022-08-27T05:22:17;12.23;;;4.20;;
3779;SDS011;1905;52.482;9.802;2022-08-27T05:24:45;10.70;;;4.37;;
3779;SDS011;1905;52.482;9.802;2022-08-27T05:27:15;7.93;;;3.20;;
3779;SDS011;1905;52.482;9.802;2022-08-27T05:29:43;6.03;;;3.43;;
3779;SDS011;1905;52.482;9.802;2022-08-27T05:32:10;5.17;;;3.73;;
3779;SDS011;1905;52.482;9.802;2022-08-27T05:34:38;11.20;;;4.37;;
3779;SDS011;1905;52.482;9.802;2022-08-27T05:37:06;8.83;;;3.60;;
3779;SDS011;1905;52.482;9.802;2022-08-27T05:39:35;7.70;;;3.70;;
3779;SDS011;1905;52.482;9.802;2022-08-27T05:42:02;7.30;;;3.40;;
3779;SDS011;1905;52.482;9.802;2022-08-27T05:44:30;4.43;;;2.87;;
3779;SDS011;1905;52.482;9.802;2022-08-27T05:47:07;12.70;;;4.87;;
3779;SDS011;1905;52.482;9.802;2022-08-27T05:49:35;4.57;;;3.00;;
3779;SDS011;1905;52.482;9.802;2022-08-27T05:52:06;7.77;;;4.20;;
3779;SDS011;1905;52.482;9.802;2022-08-27T05:54:36;5.70;;;3.20;;
3779;SDS011;1905;52.482;9.802;2022-08-27T05:57:05;11.03;;;5.00;;
3779;SDS011;1905;52.482;9.802;2022-08-27T05:59:33;10.30;;;3.15;;
3779;SDS011;1905;52.482;9.802;2022-08-27T06:02:18;6.47;;;3.47;;
3779;SDS011;1905;52.482;9.802;2022-08-27T06:04:46;10.30;;;2.77;;
3779;SDS011;1905;52.482;9.802;2022-08-27T06:07:14;11.53;;;3.43;;
3779;SDS011;1905;52.482;9.802;2022-08-27T06:09:43;7.30;;;3.03;;
3779;SDS011;1905;52.482;9.802;2022-08-27T06:12:10;8.70;;;2.83;;
3779;SDS011;1905;52.482;9.802;2022-08-27T06:14:38;8.65;;;2.92;;
3779;SDS011;1905;52.482;9.802;2022-08-27T06:17:06;3.40;;;3.10;;
3779;SDS011;1905;52.482;9.802;2022-08-27T06:19:33;7.07;;;3.33;;
3779;SDS011;1905;52.482;9.802;2022-08-27T06:22:01;4.73;;;2.57;;
3779;SDS011;1905;52.482;9.802;2022-08-27T06:24:36;7.83;;;3.23;;
3779;SDS011;1905;52.482;9.802;2022-08-27T06:27:07;6.57;;;3.50;;
3779;SDS011;1905;52.482;9.802;2022-08-27T06:29:36;14.30;;;4.27;;
3779;SDS011;1905;52.482;9.802;2022-08-27T06:32:04;5.07;;;3.50;;
3779;SDS011;1905;52.482;9.802;2022-08-27T06:34:32;3.30;;;2.77;;
3779;SDS011;1905;52.482;9.802;2022-08-27T06:36:59;5.80;;;3.40;;
3779;SDS011;1905;52.482;9.802;2022-08-27T06:39:27;6.60;;;3.70;;
3779;SDS011;1905;52.482;9.802;2022-08-27T06:41:56;7.07;;;3.10;;
3779;SDS011;1905;52.482;9.802;2022-08-27T06:44:25;7.67;;;3.30;;
3779;SDS011;1905;52.482;9.802;2022-08-27T06:46:52;5.50;;;3.30;;
3779;SDS011;1905;52.482;9.802;2022-08-27T06:49:20;6.10;;;3.27;;
3779;SDS011;1905;52.482;9.802;2022-08-27T06:51:49;7.77;;;3.77;;
3779;SDS011;1905;52.482;9.802;2022-08-27T06:54:16;5.97;;;3.47;;
3779;SDS011;1905;52.482;9.802;2022-08-27T06:56:45;4.63;;;3.40;;
3779;SDS011;1905;52.482;9.802;2022-08-27T06:59:15;4.60;;;2.77;;
3779;SDS011;1905;52.482;9.802;2022-08-27T07:01:46;5.23;;;3.13;;
3779;SDS011;1905;52.482;9.802;2022-08-27T07:04:17;9.07;;;3.57;;
3779;SDS011;1905;52.482;9.802;2022-08-27T07:06:47;6.70;;;3.67;;
3779;SDS011;1905;52.482;9.802;2022-08-27T07:09:15;8.23;;;3.13;;
3779;SDS011;1905;52.482;9.802;2022-08-27T07:11:45;4.63;;;3.30;;
3779;SDS011;1905;52.482;9.802;2022-08-27T07:14:13;6.23;;;3.20;;
3779;SDS011;1905;52.482;9.802;2022-08-27T07:16:41;5.17;;;3.07;;
3779;SDS011;1905;52.482;9.802;2022-08-27T07:19:13;7.70;;;4.20;;
3779;SDS011;1905;52.482;9.802;2022-08-27T07:21:42;4.03;;;3.03;;
3779;SDS011;1905;52.482;9.802;2022-08-27T07:24:09;5.73;;;3.63;;
3779;SDS011;1905;52.482;9.802;2022-08-27T07:26:38;7.70;;;3.17;;
3779;SDS011;1905;52.482;9.802;2022-08-27T07:29:09;8.32;;;3.15;;
3779;SDS011;1905;52.482;9.802;2022-08-27T07:31:39;7.00;;;3.27;;
3779;SDS011;1905;52.482;9.802;2022-08-27T07:34:07;5.93;;;3.30;;
3779;SDS011;1905;52.482;9.802;2022-08-27T07:36:36;8.67;;;3.97;;
3779;SDS011;1905;52.482;9.802;2022-08-27T07:39:04;3.20;;;2.50;;
3779;SDS011;1905;52.482;9.802;2022-08-27T07:41:33;5.73;;;2.90;;
3779;SDS011;1905;52.482;9.802;2022-08-27T07:44:23;4.85;;;3.47;;
3779;SDS011;1905;52.482;9.802;2022-08-27T07:46:51;7.13;;;3.37;;
3779;SDS011;1905;52.482;9.802;2022-08-27T07:49:21;4.33;;;3.10;;
3779;SDS011;1905;52.482;9.802;2022-08-27T07:51:50;7.87;;;2.80;;
3779;SDS011;1905;52.482;9.802;2022-08-27T07:54:20;6.00;;;3.50;;
3779;SDS011;1905;52.482;9.802;2022-08-27T07:56:48;5.03;;;3.60;;
3779;SDS011;1905;52.482;9.802;2022-08-27T07:59:21;4.83;;;2.80;;
3779;SDS011;1905;52.482;9.802;2022-08-27T08:01:49;5.10;;;3.93;;
3779;SDS011;1905;52.482;9.802;2022-08-27T08:04:17;5.77;;;3.57;;
3779;SDS011;1905;52.482;9.802;2022-08-27T08:06:46;4.97;;;3.70;;
3779;SDS011;1905;52.482;9.802;2022-08-27T08:09:14;7.07;;;3.53;;
3779;SDS011;1905;52.482;9.802;2022-08-27T08:11:42;7.60;;;3.00;;
3779;SDS011;1905;52.482;9.802;2022-08-27T08:14:10;8.70;;;3.47;;
3779;SDS011;1905;52.482;9.802;2022-08-27T08:16:38;6.77;;;3.40;;
3779;SDS011;1905;52.482;9.802;2022-08-27T08:19:06;6.67;;;3.03;;
3779;SDS011;1905;52.482;9.802;2022-08-27T08:21:34;4.30;;;3.20;;
3779;SDS011;1905;52.482;9.802;2022-08-27T08:24:03;4.00;;;2.50;;
3779;SDS011;1905;52.482;9.802;2022-08-27T08:26:32;8.00;;;3.03;;
3779;SDS011;1905;52.482;9.802;2022-08-27T08:29:00;8.17;;;3.20;;
3779;SDS011;1905;52.482;9.802;2022-08-27T08:31:30;10.80;;;3.60;;
3779;SDS011;1905;52.482;9.802;2022-08-27T08:33:57;7.50;;;3.70;;
3779;SDS011;1905;52.482;9.802;2022-08-27T08:36:25;4.43;;;3.40;;
3779;SDS011;1905;52.482;9.802;2022-08-27T08:38:52;5.33;;;3.47;;
3779;SDS011;1905;52.482;9.802;2022-08-27T08:41:33;6.00;;;3.03;;
3779;SDS011;1905;52.482;9.802;2022-08-27T08:44:07;6.07;;;3.67;;
3779;SDS011;1905;52.482;9.802;2022-08-27T08:46:44;5.73;;;3.10;;
3779;SDS011;1905;52.482;9.802;2022-08-27T08:49:16;11.93;;;3.90;;
3779;SDS011;1905;52.482;9.802;2022-08-27T08:52:02;4.67;;;3.10;;
3779;SDS011;1905;52.482;9.802;2022-08-27T08:54:52;8.90;;;3.50;;
3779;SDS011;1905;52.482;9.802;2022-08-27T08:57:25;8.03;;;3.63;;
3779;SDS011;1905;52.482;9.802;2022-08-27T08:59:59;5.27;;;2.90;;
3779;SDS011;1905;52.482;9.802;2022-08-27T09:02:32;6.07;;;3.00;;
3779;SDS011;1905;52.482;9.802;2022-08-27T09:05:00;5.30;;;2.60;;
3779;SDS011;1905;52.482;9.802;2022-08-27T09:07:33;7.27;;;3.03;;
3779;SDS011;1905;52.482;9.802;2022-08-27T09:10:09;5.37;;;3.47;;
3779;SDS011;1905;52.482;9.802;2022-08-27T09:12:41;12.20;;;3.80;;
3779;SDS011;1905;52.482;9.802;2022-08-27T09:15:11;5.20;;;2.90;;
3779;SDS011;1905;52.482;9.802;2022-08-27T09:17:42;7.90;;;3.37;;
3779;SDS011;1905;52.482;9.802;2022-08-27T09:20:14;4.70;;;3.57;;
3779;SDS011;1905;52.482;9.802;2022-08-27T09:22:46;6.07;;;3.08;;
3779;SDS011;1905;52.482;9.802;2022-08-27T09:25:21;11.23;;;4.03;;
3779;SDS011;1905;52.482;9.802;2022-08-27T09:27:55;7.93;;;3.37;;
3779;SDS011;1905;52.482;9.802;2022-08-27T09:30:25;4.80;;;3.00;;
3779;SDS011;1905;52.482;9.802;2022-08-27T09:32:57;7.57;;;3.27;;
3779;SDS011;1905;52.482;9.802;2022-08-27T09:35:26;7.43;;;3.20;;
3779;SDS011;1905;52.482;9.802;2022-08-27T09:37:55;8.47;;;3.07;;
3779;SDS011;1905;52.482;9.802;2022-08-27T09:40:24;8.13;;;3.40;;
3779;SDS011;1905;52.482;9.802;2022-08-27T09:43:04;9.30;;;3.30;;
3779;SDS011;1905;52.482;9.802;2022-08-27T09:45:33;9.60;;;4.53;;
3779;SDS011;1905;52.482;9.802;2022-08-27T09:48:02;8.03;;;2.93;;
3779;SDS011;1905;52.482;9.802;2022-08-27T09:50:34;6.83;;;3.00;;
3779;SDS011;1905;52.482;9.802;2022-08-27T09:53:15;7.90;;;3.73;;
3779;SDS011;1905;52.482;9.802;2022-08-27T09:55:46;3.17;;;2.80;;
3779;SDS011;1905;52.482;9.802;2022-08-27T09:58:18;5.03;;;3.00;;
3779;SDS011;1905;52.482;9.802;2022-08-27T10:00:48;4.23;;;3.10;;
3779;SDS011;1905;52.482;9.802;2022-08-27T10:03:24;10.27;;;3.87;;
3779;SDS011;1905;52.482;9.802;2022-08-27T10:05:58;10.00;;;4.23;;
3779;SDS011;1905;52.482;9.802;2022-08-27T10:08:27;7.13;;;2.70;;
3779;SDS011;1905;52.482;9.802;2022-08-27T10:11:02;10.50;;;3.30;;
3779;SDS011;1905;52.482;9.802;2022-08-27T10:13:36;6.70;;;3.20;;
3779;SDS011;1905;52.482;9.802;2022-08-27T10:16:24;5.90;;;2.93;;
3779;SDS011;1905;52.482;9.802;2022-08-27T10:19:10;6.03;;;3.20;;
3779;SDS011;1905;52.482;9.802;2022-08-27T10:21:46;10.30;;;3.20;;
3779;SDS011;1905;52.482;9.802;2022-08-27T10:24:22;12.43;;;3.57;;
3779;SDS011;1905;52.482;9.802;2022-08-27T10:27:01;4.07;;;3.40;;
3779;SDS011;1905;52.482;9.802;2022-08-27T10:29:44;5.60;;;3.23;;
3779;SDS011;1905;52.482;9.802;2022-08-27T10:32:25;3.50;;;2.80;;
3779;SDS011;1905;52.482;9.802;2022-08-27T10:35:11;7.30;;;3.17;;
3779;SDS011;1905;52.482;9.802;2022-08-27T10:37:44;4.70;;;2.40;;
3779;SDS011;1905;52.482;9.802;2022-08-27T10:40:21;7.83;;;3.40;;
3779;SDS011;1905;52.482;9.802;2022-08-27T10:42:55;5.00;;;3.20;;
3779;SDS011;1905;52.482;9.802;2022-08-27T10:45:36;7.77;;;3.60;;
3779;SDS011;1905;52.482;9.802;2022-08-27T10:48:12;4.17;;;2.87;;
3779;SDS011;1905;52.482;9.802;2022-08-27T10:50:51;8.60;;;3.50;;
3779;SDS011;1905;52.482;9.802;2022-08-27T10:53:28;3.43;;;2.87;;
3779;SDS011;1905;52.482;9.802;2022-08-27T10:56:05;3.73;;;3.13;;
3779;SDS011;1905;52.482;9.802;2022-08-27T10:58:51;5.50;;;2.50;;
3779;SDS011;1905;52.482;9.802;2022-08-27T11:01:31;7.60;;;3.33;;
3779;SDS011;1905;52.482;9.802;2022-08-27T11:04:07;5.13;;;3.30;;
3779;SDS011;1905;52.482;9.802;2022-08-27T11:06:40;6.70;;;3.13;;
3779;SDS011;1905;52.482;9.802;2022-08-27T11:09:13;4.00;;;3.30;;
3779;SDS011;1905;52.482;9.802;2022-08-27T11:11:46;4.00;;;3.07;;
3779;SDS011;1905;52.482;9.802;2022-08-27T11:14:37;3.60;;;3.30;;
3779;SDS011;1905;52.482;9.802;2022-08-27T11:17:13;9.50;;;3.10;;
3779;SDS011;1905;52.482;9.802;2022-08-27T11:19:46;5.05;;;2.60;;
3779;SDS011;1905;52.482;9.802;2022-08-27T11:22:21;3.30;;;2.67;;
3779;SDS011;1905;52.482;9.802;2022-08-27T11:24:53;3.03;;;2.50;;
3779;SDS011;1905;52.482;9.802;2022-08-27T11:27:26;3.40;;;3.10;;
3779;SDS011;1905;52.482;9.802;2022-08-27T11:29:58;5.00;;;3.00;;
3779;SDS011;1905;52.482;9.802;2022-08-27T11:32:34;11.87;;;2.47;;
3779;SDS011;1905;52.482;9.802;2022-08-27T11:35:11;4.43;;;2.77;;
3779;SDS011;1905;52.482;9.802;2022-08-27T11:37:54;4.53;;;2.50;;
3779;SDS011;1905;52.482;9.802;2022-08-27T11:40:40;11.63;;;2.87;;
3779;SDS011;1905;52.482;9.802;2022-08-27T11:43:18;7.93;;;2.80;;
3779;SDS011;1905;52.482;9.802;2022-08-27T11:45:51;7.30;;;3.37;;
3779;SDS011;1905;52.482;9.802;2022-08-27T11:48:24;2.97;;;2.47;;
3779;SDS011;1905;52.482;9.802;2022-08-27T11:50:56;10.10;;;3.20;;
3779;SDS011;1905;52.482;9.802;2022-08-27T11:53:27;7.07;;;2.80;;
3779;SDS011;1905;52.482;9.802;2022-08-27T11:55:56;6.17;;;2.53;;
3779;SDS011;1905;52.482;9.802;2022-08-27T11:58:26;4.80;;;2.20;;
3779;SDS011;1905;52.482;9.802;2022-08-27T12:01:16;5.27;;;2.70;;
3779;SDS011;1905;52.482;9.802;2022-08-27T12:03:59;7.17;;;2.97;;
3779;SDS011;1905;52.482;9.802;2022-08-27T12:06:39;5.37;;;3.17;;
3779;SDS011;1905;52.482;9.802;2022-08-27T12:09:12;4.03;;;2.43;;
3779;SDS011;1905;52.482;9.802;2022-08-27T12:11:44;8.50;;;2.37;;
3779;SDS011;1905;52.482;9.802;2022-08-27T12:14:26;6.80;;;3.00;;
3779;SDS011;1905;52.482;9.802;2022-08-27T12:17:04;9.43;;;3.13;;
3779;SDS011;1905;52.482;9.802;2022-08-27T12:19:43;13.68;;;3.67;;
3779;SDS011;1905;52.482;9.802;2022-08-27T12:22:21;3.50;;;2.60;;
3779;SDS011;1905;52.482;9.802;2022-08-27T12:25:23;4.90;;;2.67;;
3779;SDS011;1905;52.482;9.802;2022-08-27T12:27:56;10.27;;;3.07;;
3779;SDS011;1905;52.482;9.802;2022-08-27T12:30:27;13.13;;;3.13;;
3779;SDS011;1905;52.482;9.802;2022-08-27T12:32:58;5.73;;;3.07;;
3779;SDS011;1905;52.482;9.802;2022-08-27T12:35:42;4.90;;;3.10;;
3779;SDS011;1905;52.482;9.802;2022-08-27T12:38:14;3.93;;;2.50;;
3779;SDS011;1905;52.482;9.802;2022-08-27T12:40:46;7.87;;;2.80;;
3779;SDS011;1905;52.482;9.802;2022-08-27T12:43:17;5.03;;;2.40;;
3779;SDS011;1905;52.482;9.802;2022-08-27T12:45:51;6.30;;;3.10;;
3779;SDS011;1905;52.482;9.802;2022-08-27T12:48:24;5.27;;;2.40;;
3779;SDS011;1905;52.482;9.802;2022-08-27T12:50:57;6.23;;;2.90;;
3779;SDS011;1905;52.482;9.802;2022-08-27T12:53:36;2.57;;;2.30;;
3779;SDS011;1905;52.482;9.802;2022-08-27T12:59:08;6.73;;;2.40;;
3779;SDS011;1905;52.482;9.802;2022-08-27T13:01:50;7.67;;;2.67;;
3779;SDS011;1905;52.482;9.802;2022-08-27T13:04:28;6.03;;;2.67;;
3779;SDS011;1905;52.482;9.802;2022-08-27T13:06:58;2.97;;;2.47;;
3779;SDS011;1905;52.482;9.802;2022-08-27T13:09:26;6.47;;;2.70;;
3779;SDS011;1905;52.482;9.802;2022-08-27T13:11:55;4.40;;;2.50;;
3779;SDS011;1905;52.482;9.802;2022-08-27T13:14:25;4.00;;;2.43;;
3779;SDS011;1905;52.482;9.802;2022-08-27T13:16:55;5.10;;;2.57;;
3779;SDS011;1905;52.482;9.802;2022-08-27T13:19:25;6.87;;;3.13;;
3779;SDS011;1905;52.482;9.802;2022-08-27T13:21:58;5.60;;;2.10;;
3779;SDS011;1905;52.482;9.802;2022-08-27T13:24:28;10.05;;;2.83;;
3779;SDS011;1905;52.482;9.802;2022-08-27T13:27:00;3.63;;;1.77;;
3779;SDS011;1905;52.482;9.802;2022-08-27T13:29:28;4.97;;;2.27;;
3779;SDS011;1905;52.482;9.802;2022-08-27T13:31:57;4.77;;;2.43;;
3779;SDS011;1905;52.482;9.802;2022-08-27T13:34:26;5.70;;;2.60;;
3779;SDS011;1905;52.482;9.802;2022-08-27T13:36:59;5.30;;;2.37;;
3779;SDS011;1905;52.482;9.802;2022-08-27T13:39:31;3.80;;;2.00;;
3779;SDS011;1905;52.482;9.802;2022-08-27T13:42:00;6.03;;;2.50;;
3779;SDS011;1905;52.482;9.802;2022-08-27T13:44:30;8.40;;;2.63;;
3779;SDS011;1905;52.482;9.802;2022-08-27T13:47:02;5.80;;;3.10;;
3779;SDS011;1905;52.482;9.802;2022-08-27T13:49:34;5.10;;;2.40;;
3779;SDS011;1905;52.482;9.802;2022-08-27T13:52:08;10.60;;;3.70;;
3779;SDS011;1905;52.482;9.802;2022-08-27T13:54:50;8.13;;;2.70;;
3779;SDS011;1905;52.482;9.802;2022-08-27T13:57:30;5.27;;;2.27;;
3779;SDS011;1905;52.482;9.802;2022-08-27T14:00:07;9.40;;;2.83;;
3779;SDS011;1905;52.482;9.802;2022-08-27T14:02:37;4.90;;;2.47;;
3779;SDS011;1905;52.482;9.802;2022-08-27T14:05:06;4.13;;;2.30;;
3779;SDS011;1905;52.482;9.802;2022-08-27T14:07:39;3.83;;;2.25;;
3779;SDS011;1905;52.482;9.802;2022-08-27T14:10:24;5.10;;;2.80;;
3779;SDS011;1905;52.482;9.802;2022-08-27T14:12:57;5.77;;;2.30;;
3779;SDS011;1905;52.482;9.802;2022-08-27T14:15:29;4.00;;;2.20;;
3779;SDS011;1905;52.482;9.802;2022-08-27T14:18:00;7.90;;;2.60;;
3779;SDS011;1905;52.482;9.802;2022-08-27T14:20:29;4.53;;;2.33;;
3779;SDS011;1905;52.482;9.802;2022-08-27T14:22:58;7.20;;;2.70;;
3779;SDS011;1905;52.482;9.802;2022-08-27T14:25:25;4.93;;;2.40;;
3779;SDS011;1905;52.482;9.802;2022-08-27T14:27:53;6.30;;;2.10;;
3779;SDS011;1905;52.482;9.802;2022-08-27T14:30:22;4.43;;;2.13;;
3779;SDS011;1905;52.482;9.802;2022-08-27T14:32:55;7.83;;;2.33;;
3779;SDS011;1905;52.482;9.802;2022-08-27T14:35:25;4.43;;;2.00;;
3779;SDS011;1905;52.482;9.802;2022-08-27T14:37:53;5.30;;;2.23;;
3779;SDS011;1905;52.482;9.802;2022-08-27T14:40:22;6.03;;;2.20;;
3779;SDS011;1905;52.482;9.802;2022-08-27T14:42:50;13.50;;;2.27;;
3779;SDS011;1905;52.482;9.802;2022-08-27T14:45:17;5.93;;;2.77;;
3779;SDS011;1905;52.482;9.802;2022-08-27T14:47:45;9.40;;;3.10;;
3779;SDS011;1905;52.482;9.802;2022-08-27T14:50:13;5.53;;;2.47;;
3779;SDS011;1905;52.482;9.802;2022-08-27T14:52:41;9.60;;;3.00;;
3779;SDS011;1905;52.482;9.802;2022-08-27T14:55:09;8.27;;;2.40;;
3779;SDS011;1905;52.482;9.802;2022-08-27T14:57:40;5.07;;;2.20;;
3779;SDS011;1905;52.482;9.802;2022-08-27T15:00:08;5.90;;;2.27;;
3779;SDS011;1905;52.482;9.802;2022-08-27T15:02:37;8.40;;;2.33;;
3779;SDS011;1905;52.482;9.802;2022-08-27T15:05:13;3.73;;;2.10;;
3779;SDS011;1905;52.482;9.802;2022-08-27T15:07:41;5.60;;;2.53;;
3779;SDS011;1905;52.482;9.802;2022-08-27T15:10:12;5.70;;;1.87;;
3779;SDS011;1905;52.482;9.802;2022-08-27T15:12:41;8.23;;;2.37;;
3779;SDS011;1905;52.482;9.802;2022-08-27T15:15:09;4.77;;;2.30;;
3779;SDS011;1905;52.482;9.802;2022-08-27T15:17:37;4.77;;;2.60;;
3779;SDS011;1905;52.482;9.802;2022-08-27T15:20:06;7.13;;;2.07;;
3779;SDS011;1905;52.482;9.802;2022-08-27T15:22:47;5.57;;;2.83;;
3779;SDS011;1905;52.482;9.802;2022-08-27T15:25:17;7.27;;;2.77;;
3779;SDS011;1905;52.482;9.802;2022-08-27T15:27:46;6.20;;;2.20;;
3779;SDS011;1905;52.482;9.802;2022-08-27T15:30:15;5.60;;;2.37;;
3779;SDS011;1905;52.482;9.802;2022-08-27T15:32:44;4.40;;;2.23;;
3779;SDS011;1905;52.482;9.802;2022-08-27T15:35:14;10.33;;;2.33;;
3779;SDS011;1905;52.482;9.802;2022-08-27T15:37:45;4.47;;;2.23;;
3779;SDS011;1905;52.482;9.802;2022-08-27T15:40:14;5.03;;;2.00;;